sensor_id;sensor_type;location;lat;lon;timestamp;temperature;humidity
47384;DHT22;33129;52.232;5.192;2022-12-13T00:01:28;1.40;99.90
47384;DHT22;33129;52.232;5.192;2022-12-13T00:03:57;1.80;99.90
47384;DHT22;33129;52.232;5.192;2022-12-13T00:06:24;1.60;99.90
47384;DHT22;33129;52.232;5.192;2022-12-13T00:08:51;1.60;99.90
47384;DHT22;33129;52.232;5.192;2022-12-13T00:11:17;1.50;99.90
47384;DHT22;33129;52.232;5.192;2022-12-13T00:13:43;1.40;99.90
47384;DHT22;33129;52.232;5.192;2022-12-13T00:16:14;1.90;99.90
47384;DHT22;33129;52.232;5.192;2022-12-13T00:18:41;1.60;99.90
47384;DHT22;33129;52.232;5.192;2022-12-13T00:21:10;1.50;99.90
47384;DHT22;33129;52.232;5.192;2022-12-13T00:23:38;1.50;99.90
47384;DHT22;33129;52.232;5.192;2022-12-13T00:26:06;1.70;99.90
47384;DHT22;33129;52.232;5.192;2022-12-13T00:28:33;1.70;99.90
47384;DHT22;33129;52.232;5.192;2022-12-13T00:31:00;1.30;99.90
47384;DHT22;33129;52.232;5.192;2022-12-13T00:33:26;1.40;99.90
47384;DHT22;33129;52.232;5.192;2022-12-13T00:35:52;1.30;99.90
47384;DHT22;33129;52.232;5.192;2022-12-13T00:38:19;1.30;99.90
47384;DHT22;33129;52.232;5.192;2022-12-13T00:40:45;1.30;99.90
47384;DHT22;33129;52.232;5.192;2022-12-13T00:43:11;1.60;99.90
47384;DHT22;33129;52.232;5.192;2022-12-13T00:45:37;1.50;99.90
47384;DHT22;33129;52.232;5.192;2022-12-13T00:48:04;1.40;99.90
47384;DHT22;33129;52.232;5.192;2022-12-13T00:50:30;1.40;99.90
47384;DHT22;33129;52.232;5.192;2022-12-13T00:52:58;1.60;99.90
47384;DHT22;33129;52.232;5.192;2022-12-13T00:55:26;1.50;99.90
47384;DHT22;33129;52.232;5.192;2022-12-13T00:57:52;1.40;99.90
47384;DHT22;33129;52.232;5.192;2022-12-13T01:00:18;1.70;99.90
47384;DHT22;33129;52.232;5.192;2022-12-13T01:02:44;1.20;99.90
47384;DHT22;33129;52.232;5.192;2022-12-13T01:05:10;1.30;99.90
47384;DHT22;33129;52.232;5.192;2022-12-13T01:07:37;1.20;99.90
47384;DHT22;33129;52.232;5.192;2022-12-13T01:10:05;1.40;99.90
47384;DHT22;33129;52.232;5.192;2022-12-13T01:12:32;1.30;99.90
47384;DHT22;33129;52.232;5.192;2022-12-13T01:14:59;1.60;99.90
47384;DHT22;33129;52.232;5.192;2022-12-13T01:17:25;1.70;99.90
47384;DHT22;33129;52.232;5.192;2022-12-13T01:19:51;1.40;99.90
47384;DHT22;33129;52.232;5.192;2022-12-13T01:22:17;1.60;99.90
47384;DHT22;33129;52.232;5.192;2022-12-13T01:24:43;1.70;99.90
47384;DHT22;33129;52.232;5.192;2022-12-13T01:27:09;1.70;99.90
47384;DHT22;33129;52.232;5.192;2022-12-13T01:29:35;1.40;99.90
47384;DHT22;33129;52.232;5.192;2022-12-13T01:32:02;1.70;99.90
47384;DHT22;33129;52.232;5.192;2022-12-13T01:34:27;1.40;99.90
47384;DHT22;33129;52.232;5.192;2022-12-13T01:36:54;1.30;99.90
47384;DHT22;33129;52.232;5.192;2022-12-13T01:39:21;1.50;99.90
47384;DHT22;33129;52.232;5.192;2022-12-13T01:41:49;1.00;99.90
47384;DHT22;33129;52.232;5.192;2022-12-13T01:50:05;1.30;99.90
47384;DHT22;33129;52.232;5.192;2022-12-13T01:52:39;1.10;99.90
47384;DHT22;33129;52.232;5.192;2022-12-13T01:55:06;1.00;99.90
47384;DHT22;33129;52.232;5.192;2022-12-13T01:57:35;1.00;99.90
47384;DHT22;33129;52.232;5.192;2022-12-13T02:00:03;1.00;99.90
47384;DHT22;33129;52.232;5.192;2022-12-13T02:02:31;1.10;99.90
47384;DHT22;33129;52.232;5.192;2022-12-13T02:07:37;0.80;99.90
47384;DHT22;33129;52.232;5.192;2022-12-13T02:10:07;1.10;99.90
47384;DHT22;33129;52.232;5.192;2022-12-13T02:12:35;0.70;99.90
47384;DHT22;33129;52.232;5.192;2022-12-13T02:15:05;0.60;99.90
47384;DHT22;33129;52.232;5.192;2022-12-13T02:20:47;0.60;99.90
47384;DHT22;33129;52.232;5.192;2022-12-13T02:26:10;0.70;99.90
47384;DHT22;33129;52.232;5.192;2022-12-13T02:35:15;0.70;99.90
47384;DHT22;33129;52.232;5.192;2022-12-13T02:40:41;0.70;99.90
47384;DHT22;33129;52.232;5.192;2022-12-13T02:43:31;0.90;99.90
47384;DHT22;33129;52.232;5.192;2022-12-13T02:46:04;0.80;99.90
47384;DHT22;33129;52.232;5.192;2022-12-13T02:48:35;0.70;99.90
47384;DHT22;33129;52.232;5.192;2022-12-13T02:51:04;0.60;99.90
47384;DHT22;33129;52.232;5.192;2022-12-13T02:53:32;0.60;99.90
47384;DHT22;33129;52.232;5.192;2022-12-13T02:55:58;0.50;99.90
47384;DHT22;33129;52.232;5.192;2022-12-13T02:58:29;0.60;99.90
47384;DHT22;33129;52.232;5.192;2022-12-13T03:04:31;0.70;99.90
47384;DHT22;33129;52.232;5.192;2022-12-13T03:07:28;0.60;99.90
47384;DHT22;33129;52.232;5.192;2022-12-13T03:10:20;0.30;99.90
47384;DHT22;33129;52.232;5.192;2022-12-13T03:13:00;0.50;99.90
47384;DHT22;33129;52.232;5.192;2022-12-13T03:15:56;0.40;99.90
47384;DHT22;33129;52.232;5.192;2022-12-13T03:18:26;0.50;99.90
47384;DHT22;33129;52.232;5.192;2022-12-13T03:20:59;0.30;99.90
47384;DHT22;33129;52.232;5.192;2022-12-13T03:23:26;0.60;99.90
47384;DHT22;33129;52.232;5.192;2022-12-13T03:25:55;0.60;99.90
47384;DHT22;33129;52.232;5.192;2022-12-13T03:28:25;0.50;99.90
47384;DHT22;33129;52.232;5.192;2022-12-13T03:30:51;0.50;99.90
47384;DHT22;33129;52.232;5.192;2022-12-13T03:33:17;0.40;99.90
47384;DHT22;33129;52.232;5.192;2022-12-13T03:35:43;0.20;99.90
47384;DHT22;33129;52.232;5.192;2022-12-13T03:38:10;0.40;99.90
47384;DHT22;33129;52.232;5.192;2022-12-13T03:40:39;0.10;99.90
47384;DHT22;33129;52.232;5.192;2022-12-13T03:43:05;0.30;99.90
47384;DHT22;33129;52.232;5.192;2022-12-13T03:45:30;0.50;99.90
47384;DHT22;33129;52.232;5.192;2022-12-13T03:47:56;0.50;99.90
47384;DHT22;33129;52.232;5.192;2022-12-13T03:50:22;0.70;99.90
47384;DHT22;33129;52.232;5.192;2022-12-13T03:52:48;0.30;99.90
47384;DHT22;33129;52.232;5.192;2022-12-13T03:55:17;0.50;99.90
47384;DHT22;33129;52.232;5.192;2022-12-13T03:57:43;0.70;99.90
47384;DHT22;33129;52.232;5.192;2022-12-13T04:00:09;0.70;99.90
47384;DHT22;33129;52.232;5.192;2022-12-13T04:02:35;0.40;99.90
47384;DHT22;33129;52.232;5.192;2022-12-13T04:05:01;0.60;99.90
47384;DHT22;33129;52.232;5.192;2022-12-13T04:07:27;0.70;99.90
47384;DHT22;33129;52.232;5.192;2022-12-13T04:09:53;0.70;99.90
47384;DHT22;33129;52.232;5.192;2022-12-13T04:12:18;0.60;99.90
47384;DHT22;33129;52.232;5.192;2022-12-13T04:15:03;0.50;99.90
47384;DHT22;33129;52.232;5.192;2022-12-13T04:17:29;0.20;99.90
47384;DHT22;33129;52.232;5.192;2022-12-13T04:19:55;0.40;99.90
47384;DHT22;33129;52.232;5.192;2022-12-13T04:22:20;0.00;99.90
47384;DHT22;33129;52.232;5.192;2022-12-13T04:24:46;0.20;99.90
47384;DHT22;33129;52.232;5.192;2022-12-13T04:27:12;0.20;99.90
47384;DHT22;33129;52.232;5.192;2022-12-13T04:29:38;0.40;99.90
47384;DHT22;33129;52.232;5.192;2022-12-13T04:32:03;0.30;99.90
47384;DHT22;33129;52.232;5.192;2022-12-13T04:34:29;0.50;99.90
47384;DHT22;33129;52.232;5.192;2022-12-13T04:36:55;0.50;99.90
47384;DHT22;33129;52.232;5.192;2022-12-13T04:39:21;0.30;99.90
47384;DHT22;33129;52.232;5.192;2022-12-13T04:41:47;0.50;99.90
47384;DHT22;33129;52.232;5.192;2022-12-13T04:44:12;0.40;99.90
47384;DHT22;33129;52.232;5.192;2022-12-13T04:46:38;0.10;99.90
47384;DHT22;33129;52.232;5.192;2022-12-13T04:49:04;0.50;99.90
47384;DHT22;33129;52.232;5.192;2022-12-13T04:51:30;0.40;99.90
47384;DHT22;33129;52.232;5.192;2022-12-13T04:53:55;0.30;99.90
47384;DHT22;33129;52.232;5.192;2022-12-13T04:56:21;0.10;99.90
47384;DHT22;33129;52.232;5.192;2022-12-13T04:58:47;0.50;99.90
47384;DHT22;33129;52.232;5.192;2022-12-13T05:01:13;0.50;99.90
47384;DHT22;33129;52.232;5.192;2022-12-13T05:03:39;0.30;99.90
47384;DHT22;33129;52.232;5.192;2022-12-13T05:06:09;0.30;99.90
47384;DHT22;33129;52.232;5.192;2022-12-13T05:08:37;0.60;99.90
47384;DHT22;33129;52.232;5.192;2022-12-13T05:11:04;0.30;99.90
47384;DHT22;33129;52.232;5.192;2022-12-13T05:13:31;0.30;99.90
47384;DHT22;33129;52.232;5.192;2022-12-13T05:16:02;0.20;99.90
47384;DHT22;33129;52.232;5.192;2022-12-13T05:18:29;0.30;99.90
47384;DHT22;33129;52.232;5.192;2022-12-13T05:20:55;0.00;99.90
47384;DHT22;33129;52.232;5.192;2022-12-13T05:23:23;0.40;99.90
47384;DHT22;33129;52.232;5.192;2022-12-13T05:25:50;0.30;99.90
47384;DHT22;33129;52.232;5.192;2022-12-13T05:28:16;0.20;99.90
47384;DHT22;33129;52.232;5.192;2022-12-13T05:30:42;0.50;99.90
47384;DHT22;33129;52.232;5.192;2022-12-13T05:33:10;0.20;99.90
47384;DHT22;33129;52.232;5.192;2022-12-13T05:35:36;0.50;99.90
47384;DHT22;33129;52.232;5.192;2022-12-13T05:38:03;0.30;99.90
47384;DHT22;33129;52.232;5.192;2022-12-13T05:40:30;0.70;99.90
47384;DHT22;33129;52.232;5.192;2022-12-13T05:42:56;0.50;99.90
47384;DHT22;33129;52.232;5.192;2022-12-13T05:45:23;0.50;99.90
47384;DHT22;33129;52.232;5.192;2022-12-13T05:47:49;0.60;99.90
47384;DHT22;33129;52.232;5.192;2022-12-13T05:50:15;0.90;99.90
47384;DHT22;33129;52.232;5.192;2022-12-13T05:52:42;0.80;99.90
47384;DHT22;33129;52.232;5.192;2022-12-13T05:55:09;0.80;99.90
47384;DHT22;33129;52.232;5.192;2022-12-13T05:57:35;0.80;99.90
47384;DHT22;33129;52.232;5.192;2022-12-13T06:00:03;0.70;99.90
47384;DHT22;33129;52.232;5.192;2022-12-13T06:02:30;0.20;99.90
47384;DHT22;33129;52.232;5.192;2022-12-13T06:04:56;0.30;99.90
47384;DHT22;33129;52.232;5.192;2022-12-13T06:07:22;0.30;99.90
47384;DHT22;33129;52.232;5.192;2022-12-13T06:09:47;0.50;99.90
47384;DHT22;33129;52.232;5.192;2022-12-13T06:12:13;0.60;99.90
47384;DHT22;33129;52.232;5.192;2022-12-13T06:14:40;0.30;99.90
47384;DHT22;33129;52.232;5.192;2022-12-13T06:17:06;0.20;99.90
47384;DHT22;33129;52.232;5.192;2022-12-13T06:19:32;0.20;99.90
47384;DHT22;33129;52.232;5.192;2022-12-13T06:21:58;0.30;99.90
47384;DHT22;33129;52.232;5.192;2022-12-13T06:24:24;0.30;99.90
47384;DHT22;33129;52.232;5.192;2022-12-13T06:26:50;-0.10;99.90
47384;DHT22;33129;52.232;5.192;2022-12-13T06:29:17;0.00;99.90
47384;DHT22;33129;52.232;5.192;2022-12-13T06:31:45;0.10;99.90
47384;DHT22;33129;52.232;5.192;2022-12-13T06:34:10;0.00;99.90
47384;DHT22;33129;52.232;5.192;2022-12-13T06:36:36;-0.10;99.90
47384;DHT22;33129;52.232;5.192;2022-12-13T06:39:04;0.00;99.90
47384;DHT22;33129;52.232;5.192;2022-12-13T06:41:32;0.00;99.90
47384;DHT22;33129;52.232;5.192;2022-12-13T06:43:59;-0.10;99.90
47384;DHT22;33129;52.232;5.192;2022-12-13T06:46:25;-0.10;99.90
47384;DHT22;33129;52.232;5.192;2022-12-13T06:48:51;-0.20;99.90
47384;DHT22;33129;52.232;5.192;2022-12-13T06:51:17;-0.10;99.90
47384;DHT22;33129;52.232;5.192;2022-12-13T06:53:43;-0.10;99.90
47384;DHT22;33129;52.232;5.192;2022-12-13T06:56:13;0.10;99.90
47384;DHT22;33129;52.232;5.192;2022-12-13T06:58:40;0.20;99.90
47384;DHT22;33129;52.232;5.192;2022-12-13T07:03:35;0.10;99.90
47384;DHT22;33129;52.232;5.192;2022-12-13T07:06:12;0.10;99.90
47384;DHT22;33129;52.232;5.192;2022-12-13T07:08:46;-0.10;99.90
47384;DHT22;33129;52.232;5.192;2022-12-13T07:11:17;-0.20;99.90
47384;DHT22;33129;52.232;5.192;2022-12-13T07:13:48;0.10;99.90
47384;DHT22;33129;52.232;5.192;2022-12-13T07:16:13;0.10;99.90
47384;DHT22;33129;52.232;5.192;2022-12-13T07:18:40;0.30;99.90
47384;DHT22;33129;52.232;5.192;2022-12-13T07:21:07;0.00;99.90
47384;DHT22;33129;52.232;5.192;2022-12-13T07:23:36;0.30;99.90
47384;DHT22;33129;52.232;5.192;2022-12-13T07:26:03;0.10;99.90
47384;DHT22;33129;52.232;5.192;2022-12-13T07:28:32;0.10;99.90
47384;DHT22;33129;52.232;5.192;2022-12-13T07:31:03;-0.20;99.90
47384;DHT22;33129;52.232;5.192;2022-12-13T07:33:31;0.20;99.90
47384;DHT22;33129;52.232;5.192;2022-12-13T07:36:06;-0.30;99.90
47384;DHT22;33129;52.232;5.192;2022-12-13T07:38:36;0.00;99.90
47384;DHT22;33129;52.232;5.192;2022-12-13T07:41:03;0.00;99.90
47384;DHT22;33129;52.232;5.192;2022-12-13T07:43:30;0.10;99.90
47384;DHT22;33129;52.232;5.192;2022-12-13T07:45:58;0.20;99.90
47384;DHT22;33129;52.232;5.192;2022-12-13T07:48:25;0.00;99.90
47384;DHT22;33129;52.232;5.192;2022-12-13T07:50:52;0.00;99.90
47384;DHT22;33129;52.232;5.192;2022-12-13T07:53:19;0.10;99.90
47384;DHT22;33129;52.232;5.192;2022-12-13T07:55:45;0.10;99.90
47384;DHT22;33129;52.232;5.192;2022-12-13T07:58:14;0.20;99.90
47384;DHT22;33129;52.232;5.192;2022-12-13T08:00:43;0.00;99.90
47384;DHT22;33129;52.232;5.192;2022-12-13T08:03:09;0.30;99.90
47384;DHT22;33129;52.232;5.192;2022-12-13T08:05:36;-0.10;99.90
47384;DHT22;33129;52.232;5.192;2022-12-13T08:08:04;0.00;99.90
47384;DHT22;33129;52.232;5.192;2022-12-13T08:10:30;-0.10;99.90
47384;DHT22;33129;52.232;5.192;2022-12-13T08:12:57;-0.10;99.90
47384;DHT22;33129;52.232;5.192;2022-12-13T08:15:23;-0.10;99.90
47384;DHT22;33129;52.232;5.192;2022-12-13T08:17:50;0.10;99.90
47384;DHT22;33129;52.232;5.192;2022-12-13T08:20:16;0.10;99.90
47384;DHT22;33129;52.232;5.192;2022-12-13T08:22:42;0.40;99.90
47384;DHT22;33129;52.232;5.192;2022-12-13T08:25:08;0.60;99.90
47384;DHT22;33129;52.232;5.192;2022-12-13T08:27:34;1.60;99.90
47384;DHT22;33129;52.232;5.192;2022-12-13T08:30:00;3.10;99.90
47384;DHT22;33129;52.232;5.192;2022-12-13T08:32:26;3.50;99.90
47384;DHT22;33129;52.232;5.192;2022-12-13T08:34:52;3.50;99.90
47384;DHT22;33129;52.232;5.192;2022-12-13T08:37:18;3.50;99.90
47384;DHT22;33129;52.232;5.192;2022-12-13T08:39:44;3.40;99.90
47384;DHT22;33129;52.232;5.192;2022-12-13T08:42:14;3.30;99.90
47384;DHT22;33129;52.232;5.192;2022-12-13T08:44:41;4.00;99.90
47384;DHT22;33129;52.232;5.192;2022-12-13T08:47:08;4.20;99.90
47384;DHT22;33129;52.232;5.192;2022-12-13T08:49:34;4.80;99.90
47384;DHT22;33129;52.232;5.192;2022-12-13T08:52:00;5.20;99.90
47384;DHT22;33129;52.232;5.192;2022-12-13T08:54:26;4.90;99.90
47384;DHT22;33129;52.232;5.192;2022-12-13T08:56:51;4.80;99.90
47384;DHT22;33129;52.232;5.192;2022-12-13T08:59:18;4.60;99.90
47384;DHT22;33129;52.232;5.192;2022-12-13T09:01:44;4.70;99.90
47384;DHT22;33129;52.232;5.192;2022-12-13T09:04:10;4.60;99.90
47384;DHT22;33129;52.232;5.192;2022-12-13T09:06:36;4.70;99.90
47384;DHT22;33129;52.232;5.192;2022-12-13T09:09:02;4.80;99.90
47384;DHT22;33129;52.232;5.192;2022-12-13T09:11:28;4.90;99.90
47384;DHT22;33129;52.232;5.192;2022-12-13T09:13:54;4.80;99.90
47384;DHT22;33129;52.232;5.192;2022-12-13T09:16:20;4.90;99.90
47384;DHT22;33129;52.232;5.192;2022-12-13T09:18:49;5.40;99.90
47384;DHT22;33129;52.232;5.192;2022-12-13T09:21:15;5.90;99.90
47384;DHT22;33129;52.232;5.192;2022-12-13T09:23:41;5.70;99.90
47384;DHT22;33129;52.232;5.192;2022-12-13T09:26:09;5.90;99.90
47384;DHT22;33129;52.232;5.192;2022-12-13T09:28:37;6.30;99.90
47384;DHT22;33129;52.232;5.192;2022-12-13T09:33:44;5.90;99.90
47384;DHT22;33129;52.232;5.192;2022-12-13T09:36:13;6.00;99.90
47384;DHT22;33129;52.232;5.192;2022-12-13T09:38:43;5.60;99.90
47384;DHT22;33129;52.232;5.192;2022-12-13T09:41:31;5.30;99.90
47384;DHT22;33129;52.232;5.192;2022-12-13T09:44:27;5.90;99.90
47384;DHT22;33129;52.232;5.192;2022-12-13T09:46:59;6.50;99.90
47384;DHT22;33129;52.232;5.192;2022-12-13T09:49:34;7.20;99.90
47384;DHT22;33129;52.232;5.192;2022-12-13T09:52:06;7.70;99.90
47384;DHT22;33129;52.232;5.192;2022-12-13T09:54:34;8.20;99.90
47384;DHT22;33129;52.232;5.192;2022-12-13T09:57:00;9.50;99.90
47384;DHT22;33129;52.232;5.192;2022-12-13T09:59:31;9.10;99.90
47384;DHT22;33129;52.232;5.192;2022-12-13T10:02:15;9.20;99.90
47384;DHT22;33129;52.232;5.192;2022-12-13T10:04:51;10.10;99.90
47384;DHT22;33129;52.232;5.192;2022-12-13T10:07:23;11.90;99.90
47384;DHT22;33129;52.232;5.192;2022-12-13T10:09:59;12.30;99.90
47384;DHT22;33129;52.232;5.192;2022-12-13T10:12:28;12.10;99.90
47384;DHT22;33129;52.232;5.192;2022-12-13T10:14:58;9.80;99.90
47384;DHT22;33129;52.232;5.192;2022-12-13T10:17:30;7.90;99.90
47384;DHT22;33129;52.232;5.192;2022-12-13T10:19:57;6.90;99.90
47384;DHT22;33129;52.232;5.192;2022-12-13T10:22:23;6.10;99.90
47384;DHT22;33129;52.232;5.192;2022-12-13T10:24:55;5.70;99.90
47384;DHT22;33129;52.232;5.192;2022-12-13T10:27:37;5.00;99.90
47384;DHT22;33129;52.232;5.192;2022-12-13T10:35:31;4.80;99.90
47384;DHT22;33129;52.232;5.192;2022-12-13T10:38:28;4.90;99.90
47384;DHT22;33129;52.232;5.192;2022-12-13T10:40:54;4.70;99.90
47384;DHT22;33129;52.232;5.192;2022-12-13T10:43:22;4.70;99.90
47384;DHT22;33129;52.232;5.192;2022-12-13T10:45:57;4.80;99.90
47384;DHT22;33129;52.232;5.192;2022-12-13T10:48:48;4.70;99.90
47384;DHT22;33129;52.232;5.192;2022-12-13T10:51:17;4.80;99.90
47384;DHT22;33129;52.232;5.192;2022-12-13T10:53:47;4.90;99.90
47384;DHT22;33129;52.232;5.192;2022-12-13T10:56:17;5.20;99.90
47384;DHT22;33129;52.232;5.192;2022-12-13T10:58:45;5.30;99.90
47384;DHT22;33129;52.232;5.192;2022-12-13T11:04:22;5.00;99.90
47384;DHT22;33129;52.232;5.192;2022-12-13T11:06:53;4.70;99.90
47384;DHT22;33129;52.232;5.192;2022-12-13T11:09:33;4.50;99.90
47384;DHT22;33129;52.232;5.192;2022-12-13T11:12:10;4.50;99.90
47384;DHT22;33129;52.232;5.192;2022-12-13T11:14:51;5.00;99.90
47384;DHT22;33129;52.232;5.192;2022-12-13T11:17:23;5.00;99.90
47384;DHT22;33129;52.232;5.192;2022-12-13T11:19:57;4.90;99.90
47384;DHT22;33129;52.232;5.192;2022-12-13T11:22:31;5.10;99.90
47384;DHT22;33129;52.232;5.192;2022-12-13T11:25:06;4.90;99.90
47384;DHT22;33129;52.232;5.192;2022-12-13T11:36:49;4.70;99.90
47384;DHT22;33129;52.232;5.192;2022-12-13T11:39:20;4.80;99.90
47384;DHT22;33129;52.232;5.192;2022-12-13T11:42:24;4.80;99.90
47384;DHT22;33129;52.232;5.192;2022-12-13T11:45:13;4.60;99.90
47384;DHT22;33129;52.232;5.192;2022-12-13T11:50:39;4.60;99.90
47384;DHT22;33129;52.232;5.192;2022-12-13T11:55:55;4.70;99.90
47384;DHT22;33129;52.232;5.192;2022-12-13T12:01:53;5.10;99.90
47384;DHT22;33129;52.232;5.192;2022-12-13T12:04:45;5.20;99.90
47384;DHT22;33129;52.232;5.192;2022-12-13T12:10:40;5.20;99.90
47384;DHT22;33129;52.232;5.192;2022-12-13T12:13:26;5.40;99.90
47384;DHT22;33129;52.232;5.192;2022-12-13T12:16:12;5.40;99.90
47384;DHT22;33129;52.232;5.192;2022-12-13T12:18:39;5.40;99.90
47384;DHT22;33129;52.232;5.192;2022-12-13T12:21:37;5.30;99.90
47384;DHT22;33129;52.232;5.192;2022-12-13T12:33:05;4.90;99.90
47384;DHT22;33129;52.232;5.192;2022-12-13T12:36:37;5.40;99.90
47384;DHT22;33129;52.232;5.192;2022-12-13T12:39:32;5.60;99.90
47384;DHT22;33129;52.232;5.192;2022-12-13T12:43:00;5.60;99.90
47384;DHT22;33129;52.232;5.192;2022-12-13T12:51:51;5.10;99.90
47384;DHT22;33129;52.232;5.192;2022-12-13T12:57:16;4.90;99.90
47384;DHT22;33129;52.232;5.192;2022-12-13T13:02:51;4.50;99.90
47384;DHT22;33129;52.232;5.192;2022-12-13T13:05:27;4.80;99.90
47384;DHT22;33129;52.232;5.192;2022-12-13T13:08:05;4.50;99.90
47384;DHT22;33129;52.232;5.192;2022-12-13T13:10:52;4.50;99.90
47384;DHT22;33129;52.232;5.192;2022-12-13T13:16:33;4.50;99.90
47384;DHT22;33129;52.232;5.192;2022-12-13T13:21:59;3.90;99.90
47384;DHT22;33129;52.232;5.192;2022-12-13T13:24:31;3.90;99.90
47384;DHT22;33129;52.232;5.192;2022-12-13T13:27:24;3.60;99.90
47384;DHT22;33129;52.232;5.192;2022-12-13T13:30:04;3.70;99.90
47384;DHT22;33129;52.232;5.192;2022-12-13T13:32:39;3.70;99.90
47384;DHT22;33129;52.232;5.192;2022-12-13T13:37:53;3.40;99.90
47384;DHT22;33129;52.232;5.192;2022-12-13T13:40:27;3.50;99.90
47384;DHT22;33129;52.232;5.192;2022-12-13T13:46:07;3.40;99.90
47384;DHT22;33129;52.232;5.192;2022-12-13T14:10:05;3.30;99.90
47384;DHT22;33129;52.232;5.192;2022-12-13T14:24:47;3.40;99.90
47384;DHT22;33129;52.232;5.192;2022-12-13T14:30:43;3.20;99.90
47384;DHT22;33129;52.232;5.192;2022-12-13T14:33:20;2.90;99.90
47384;DHT22;33129;52.232;5.192;2022-12-13T14:35:53;3.40;99.90
47384;DHT22;33129;52.232;5.192;2022-12-13T14:38:30;3.30;99.90
47384;DHT22;33129;52.232;5.192;2022-12-13T14:41:01;3.20;99.90
47384;DHT22;33129;52.232;5.192;2022-12-13T14:43:29;3.00;99.90
47384;DHT22;33129;52.232;5.192;2022-12-13T14:46:05;3.10;99.90
47384;DHT22;33129;52.232;5.192;2022-12-13T14:54:02;2.90;99.90
47384;DHT22;33129;52.232;5.192;2022-12-13T14:56:30;3.20;99.90
47384;DHT22;33129;52.232;5.192;2022-12-13T14:58:58;3.00;99.90
47384;DHT22;33129;52.232;5.192;2022-12-13T15:04:26;2.90;99.90
47384;DHT22;33129;52.232;5.192;2022-12-13T15:07:12;3.10;99.90
47384;DHT22;33129;52.232;5.192;2022-12-13T15:09:41;2.60;99.90
47384;DHT22;33129;52.232;5.192;2022-12-13T15:12:11;2.70;99.90
47384;DHT22;33129;52.232;5.192;2022-12-13T15:14:42;2.60;99.90
47384;DHT22;33129;52.232;5.192;2022-12-13T15:19:55;2.50;99.90
47384;DHT22;33129;52.232;5.192;2022-12-13T15:22:22;2.30;99.90
47384;DHT22;33129;52.232;5.192;2022-12-13T15:24:48;2.00;99.90
47384;DHT22;33129;52.232;5.192;2022-12-13T15:27:19;2.30;99.90
47384;DHT22;33129;52.232;5.192;2022-12-13T15:29:50;2.10;99.90
47384;DHT22;33129;52.232;5.192;2022-12-13T15:32:19;2.00;99.90
47384;DHT22;33129;52.232;5.192;2022-12-13T15:34:47;2.10;1.00
47384;DHT22;33129;52.232;5.192;2022-12-13T15:37:25;2.10;99.90
47384;DHT22;33129;52.232;5.192;2022-12-13T15:39:58;1.80;99.90
47384;DHT22;33129;52.232;5.192;2022-12-13T15:42:38;2.10;1.00
47384;DHT22;33129;52.232;5.192;2022-12-13T15:45:25;1.80;1.00
47384;DHT22;33129;52.232;5.192;2022-12-13T15:47:52;2.10;99.90
47384;DHT22;33129;52.232;5.192;2022-12-13T15:53:01;2.00;99.90
47384;DHT22;33129;52.232;5.192;2022-12-13T15:55:34;1.90;1.00
47384;DHT22;33129;52.232;5.192;2022-12-13T15:58:02;2.10;99.90
47384;DHT22;33129;52.232;5.192;2022-12-13T16:00:33;2.30;99.90
47384;DHT22;33129;52.232;5.192;2022-12-13T16:03:11;2.10;99.90
47384;DHT22;33129;52.232;5.192;2022-12-13T16:05:51;2.10;99.90
47384;DHT22;33129;52.232;5.192;2022-12-13T16:10:51;1.90;99.90
47384;DHT22;33129;52.232;5.192;2022-12-13T16:13:40;2.50;99.90
47384;DHT22;33129;52.232;5.192;2022-12-13T16:16:25;2.50;99.90
47384;DHT22;33129;52.232;5.192;2022-12-13T16:18:55;2.20;99.90
47384;DHT22;33129;52.232;5.192;2022-12-13T16:21:24;2.40;99.90
47384;DHT22;33129;52.232;5.192;2022-12-13T16:23:51;2.60;99.90
47384;DHT22;33129;52.232;5.192;2022-12-13T16:26:28;2.60;99.90
47384;DHT22;33129;52.232;5.192;2022-12-13T16:28:54;2.60;99.90
47384;DHT22;33129;52.232;5.192;2022-12-13T16:31:26;2.80;99.90
47384;DHT22;33129;52.232;5.192;2022-12-13T16:34:03;2.50;99.90
47384;DHT22;33129;52.232;5.192;2022-12-13T16:36:30;2.70;99.90
47384;DHT22;33129;52.232;5.192;2022-12-13T16:38:56;2.20;99.90
47384;DHT22;33129;52.232;5.192;2022-12-13T16:41:22;2.30;99.90
47384;DHT22;33129;52.232;5.192;2022-12-13T16:43:57;2.40;99.90
47384;DHT22;33129;52.232;5.192;2022-12-13T16:46:25;2.20;99.90
47384;DHT22;33129;52.232;5.192;2022-12-13T16:48:52;2.60;99.90
47384;DHT22;33129;52.232;5.192;2022-12-13T16:51:19;2.50;99.90
47384;DHT22;33129;52.232;5.192;2022-12-13T16:53:45;2.40;99.90
47384;DHT22;33129;52.232;5.192;2022-12-13T16:56:11;2.70;99.90
47384;DHT22;33129;52.232;5.192;2022-12-13T16:58:41;2.20;99.90
47384;DHT22;33129;52.232;5.192;2022-12-13T17:01:12;2.40;99.90
47384;DHT22;33129;52.232;5.192;2022-12-13T17:03:39;2.30;99.90
47384;DHT22;33129;52.232;5.192;2022-12-13T17:06:07;2.00;99.90
47384;DHT22;33129;52.232;5.192;2022-12-13T17:08:34;2.00;99.90
47384;DHT22;33129;52.232;5.192;2022-12-13T17:11:01;2.30;99.90
47384;DHT22;33129;52.232;5.192;2022-12-13T17:13:27;2.50;99.90
47384;DHT22;33129;52.232;5.192;2022-12-13T17:15:53;2.50;99.90
47384;DHT22;33129;52.232;5.192;2022-12-13T17:18:20;2.40;99.90
47384;DHT22;33129;52.232;5.192;2022-12-13T17:20:46;2.20;99.90
47384;DHT22;33129;52.232;5.192;2022-12-13T17:23:12;2.50;99.90
47384;DHT22;33129;52.232;5.192;2022-12-13T17:25:39;2.40;99.90
47384;DHT22;33129;52.232;5.192;2022-12-13T17:28:06;2.10;99.90
47384;DHT22;33129;52.232;5.192;2022-12-13T17:30:32;2.00;99.90
47384;DHT22;33129;52.232;5.192;2022-12-13T17:33:03;1.70;99.90
47384;DHT22;33129;52.232;5.192;2022-12-13T17:35:32;1.60;99.90
47384;DHT22;33129;52.232;5.192;2022-12-13T17:37:58;1.50;99.90
47384;DHT22;33129;52.232;5.192;2022-12-13T17:40:24;1.70;99.90
47384;DHT22;33129;52.232;5.192;2022-12-13T17:42:51;1.90;99.90
47384;DHT22;33129;52.232;5.192;2022-12-13T17:45:17;2.00;99.90
47384;DHT22;33129;52.232;5.192;2022-12-13T17:47:47;2.00;99.90
47384;DHT22;33129;52.232;5.192;2022-12-13T17:50:13;1.90;99.90
47384;DHT22;33129;52.232;5.192;2022-12-13T17:52:40;1.70;99.90
47384;DHT22;33129;52.232;5.192;2022-12-13T17:55:06;2.00;99.90
47384;DHT22;33129;52.232;5.192;2022-12-13T17:57:33;1.90;99.90
47384;DHT22;33129;52.232;5.192;2022-12-13T17:59:59;2.00;99.90
47384;DHT22;33129;52.232;5.192;2022-12-13T18:02:26;2.00;99.90
47384;DHT22;33129;52.232;5.192;2022-12-13T18:04:52;2.00;99.90
47384;DHT22;33129;52.232;5.192;2022-12-13T18:07:18;2.10;99.90
47384;DHT22;33129;52.232;5.192;2022-12-13T18:09:44;1.70;99.90
47384;DHT22;33129;52.232;5.192;2022-12-13T18:12:10;1.70;99.90
47384;DHT22;33129;52.232;5.192;2022-12-13T18:14:37;1.80;99.90
47384;DHT22;33129;52.232;5.192;2022-12-13T18:17:03;2.00;99.90
47384;DHT22;33129;52.232;5.192;2022-12-13T18:19:29;1.70;99.90
47384;DHT22;33129;52.232;5.192;2022-12-13T18:21:57;1.80;99.90
47384;DHT22;33129;52.232;5.192;2022-12-13T18:24:23;1.70;99.90
47384;DHT22;33129;52.232;5.192;2022-12-13T18:26:49;1.80;99.90
47384;DHT22;33129;52.232;5.192;2022-12-13T18:29:16;1.60;99.90
47384;DHT22;33129;52.232;5.192;2022-12-13T18:31:42;1.80;99.90